sensor_id;sensor_type;location;lat;lon;timestamp;P1;durP1;ratioP1;P2;durP2;ratioP2
40787;SDS011;26497;52.494;7.546;2023-07-29T00:00:04;243.57;;;220.70;;
40787;SDS011;26497;52.494;7.546;2023-07-29T00:02:36;237.15;;;215.05;;
40787;SDS011;26497;52.494;7.546;2023-07-29T00:05:03;243.82;;;221.18;;
40787;SDS011;26497;52.494;7.546;2023-07-29T00:07:31;243.85;;;221.50;;
40787;SDS011;26497;52.494;7.546;2023-07-29T00:09:59;243.77;;;221.70;;
40787;SDS011;26497;52.494;7.546;2023-07-29T00:12:27;246.52;;;224.43;;
40787;SDS011;26497;52.494;7.546;2023-07-29T00:14:54;242.50;;;220.98;;
40787;SDS011;26497;52.494;7.546;2023-07-29T00:17:21;244.07;;;222.38;;
40787;SDS011;26497;52.494;7.546;2023-07-29T00:19:48;231.55;;;210.63;;
40787;SDS011;26497;52.494;7.546;2023-07-29T00:22:15;235.88;;;215.38;;
40787;SDS011;26497;52.494;7.546;2023-07-29T00:24:43;245.80;;;225.95;;
40787;SDS011;26497;52.494;7.546;2023-07-29T00:27:11;251.88;;;231.52;;
40787;SDS011;26497;52.494;7.546;2023-07-29T00:29:40;236.67;;;217.87;;
40787;SDS011;26497;52.494;7.546;2023-07-29T00:32:08;235.73;;;216.73;;
40787;SDS011;26497;52.494;7.546;2023-07-29T00:34:35;240.50;;;221.77;;
40787;SDS011;26497;52.494;7.546;2023-07-29T00:37:02;209.70;;;192.95;;
40787;SDS011;26497;52.494;7.546;2023-07-29T00:39:30;169.80;;;155.73;;
40787;SDS011;26497;52.494;7.546;2023-07-29T00:41:58;165.38;;;151.73;;
40787;SDS011;26497;52.494;7.546;2023-07-29T00:44:28;157.68;;;143.95;;
40787;SDS011;26497;52.494;7.546;2023-07-29T00:46:56;168.75;;;154.52;;
40787;SDS011;26497;52.494;7.546;2023-07-29T00:49:25;188.30;;;173.10;;
40787;SDS011;26497;52.494;7.546;2023-07-29T00:51:54;206.57;;;190.18;;
40787;SDS011;26497;52.494;7.546;2023-07-29T00:54:21;208.90;;;193.30;;
40787;SDS011;26497;52.494;7.546;2023-07-29T00:56:49;210.98;;;195.23;;
40787;SDS011;26497;52.494;7.546;2023-07-29T00:59:16;208.80;;;192.90;;
40787;SDS011;26497;52.494;7.546;2023-07-29T01:01:46;188.95;;;175.00;;
40787;SDS011;26497;52.494;7.546;2023-07-29T01:04:13;191.35;;;177.38;;
40787;SDS011;26497;52.494;7.546;2023-07-29T01:06:45;193.50;;;179.02;;
40787;SDS011;26497;52.494;7.546;2023-07-29T01:09:29;193.45;;;179.70;;
40787;SDS011;26497;52.494;7.546;2023-07-29T01:12:14;190.02;;;176.43;;
40787;SDS011;26497;52.494;7.546;2023-07-29T01:14:49;179.82;;;167.45;;
40787;SDS011;26497;52.494;7.546;2023-07-29T01:17:29;174.85;;;162.70;;
40787;SDS011;26497;52.494;7.546;2023-07-29T01:20:03;168.98;;;157.45;;
40787;SDS011;26497;52.494;7.546;2023-07-29T01:22:36;163.18;;;152.40;;
40787;SDS011;26497;52.494;7.546;2023-07-29T01:25:06;152.57;;;142.23;;
40787;SDS011;26497;52.494;7.546;2023-07-29T01:27:34;150.13;;;139.60;;
40787;SDS011;26497;52.494;7.546;2023-07-29T01:30:01;142.95;;;132.80;;
40787;SDS011;26497;52.494;7.546;2023-07-29T01:32:31;142.75;;;133.38;;
40787;SDS011;26497;52.494;7.546;2023-07-29T01:35:11;143.18;;;133.35;;
40787;SDS011;26497;52.494;7.546;2023-07-29T01:40:19;146.63;;;137.25;;
40787;SDS011;26497;52.494;7.546;2023-07-29T01:42:49;147.60;;;138.27;;
40787;SDS011;26497;52.494;7.546;2023-07-29T01:45:19;144.48;;;134.63;;
40787;SDS011;26497;52.494;7.546;2023-07-29T01:47:49;144.63;;;134.68;;
40787;SDS011;26497;52.494;7.546;2023-07-29T01:50:16;140.20;;;130.80;;
40787;SDS011;26497;52.494;7.546;2023-07-29T01:52:43;134.95;;;126.43;;
40787;SDS011;26497;52.494;7.546;2023-07-29T01:55:10;137.90;;;129.00;;
40787;SDS011;26497;52.494;7.546;2023-07-29T01:57:40;136.38;;;127.63;;
40787;SDS011;26497;52.494;7.546;2023-07-29T02:00:10;133.90;;;125.45;;
40787;SDS011;26497;52.494;7.546;2023-07-29T02:02:39;136.13;;;127.38;;
40787;SDS011;26497;52.494;7.546;2023-07-29T02:05:07;136.05;;;127.40;;
40787;SDS011;26497;52.494;7.546;2023-07-29T02:07:35;128.05;;;120.18;;
40787;SDS011;26497;52.494;7.546;2023-07-29T02:10:03;130.70;;;122.55;;
40787;SDS011;26497;52.494;7.546;2023-07-29T02:12:30;130.38;;;122.20;;
40787;SDS011;26497;52.494;7.546;2023-07-29T02:14:59;124.60;;;116.70;;
40787;SDS011;26497;52.494;7.546;2023-07-29T02:17:26;130.45;;;122.03;;
40787;SDS011;26497;52.494;7.546;2023-07-29T02:19:53;130.75;;;122.38;;
40787;SDS011;26497;52.494;7.546;2023-07-29T02:22:20;129.25;;;121.20;;
40787;SDS011;26497;52.494;7.546;2023-07-29T02:24:47;125.05;;;117.03;;
40787;SDS011;26497;52.494;7.546;2023-07-29T02:27:15;119.78;;;112.28;;
40787;SDS011;26497;52.494;7.546;2023-07-29T02:29:42;115.80;;;108.43;;
40787;SDS011;26497;52.494;7.546;2023-07-29T02:32:10;117.88;;;110.53;;
40787;SDS011;26497;52.494;7.546;2023-07-29T02:34:37;119.38;;;111.93;;
40787;SDS011;26497;52.494;7.546;2023-07-29T02:37:05;118.32;;;110.07;;
40787;SDS011;26497;52.494;7.546;2023-07-29T02:39:32;119.07;;;111.72;;
40787;SDS011;26497;52.494;7.546;2023-07-29T02:42:00;117.40;;;110.30;;
40787;SDS011;26497;52.494;7.546;2023-07-29T02:44:26;118.47;;;111.30;;
40787;SDS011;26497;52.494;7.546;2023-07-29T02:46:53;120.30;;;112.43;;
40787;SDS011;26497;52.494;7.546;2023-07-29T02:49:22;122.28;;;114.55;;
40787;SDS011;26497;52.494;7.546;2023-07-29T02:51:52;118.68;;;111.38;;
40787;SDS011;26497;52.494;7.546;2023-07-29T02:54:19;117.80;;;110.53;;
40787;SDS011;26497;52.494;7.546;2023-07-29T02:56:46;117.80;;;109.80;;
40787;SDS011;26497;52.494;7.546;2023-07-29T02:59:13;113.60;;;106.60;;
40787;SDS011;26497;52.494;7.546;2023-07-29T03:01:40;108.25;;;101.53;;
40787;SDS011;26497;52.494;7.546;2023-07-29T03:04:07;110.05;;;102.90;;
40787;SDS011;26497;52.494;7.546;2023-07-29T03:06:35;108.53;;;101.82;;
40787;SDS011;26497;52.494;7.546;2023-07-29T03:09:02;108.43;;;101.43;;
40787;SDS011;26497;52.494;7.546;2023-07-29T03:11:29;111.10;;;103.70;;
40787;SDS011;26497;52.494;7.546;2023-07-29T03:13:57;117.78;;;110.40;;
40787;SDS011;26497;52.494;7.546;2023-07-29T03:16:24;126.05;;;117.82;;
40787;SDS011;26497;52.494;7.546;2023-07-29T03:18:51;126.95;;;118.47;;
40787;SDS011;26497;52.494;7.546;2023-07-29T03:21:18;597.47;;;341.25;;
40787;SDS011;26497;52.494;7.546;2023-07-29T03:23:46;1999.90;;;999.90;;
40787;SDS011;26497;52.494;7.546;2023-07-29T03:26:13;1999.90;;;999.90;;
40787;SDS011;26497;52.494;7.546;2023-07-29T03:28:40;1999.90;;;999.90;;
40787;SDS011;26497;52.494;7.546;2023-07-29T03:31:08;1999.90;;;999.90;;
40787;SDS011;26497;52.494;7.546;2023-07-29T03:33:36;1999.90;;;999.90;;
40787;SDS011;26497;52.494;7.546;2023-07-29T03:36:03;1999.90;;;999.90;;
40787;SDS011;26497;52.494;7.546;2023-07-29T03:38:30;1999.90;;;999.90;;
40787;SDS011;26497;52.494;7.546;2023-07-29T03:41:01;1999.90;;;999.90;;
40787;SDS011;26497;52.494;7.546;2023-07-29T03:43:28;1999.90;;;999.90;;
40787;SDS011;26497;52.494;7.546;2023-07-29T03:45:55;1999.90;;;999.90;;
40787;SDS011;26497;52.494;7.546;2023-07-29T03:48:22;1999.90;;;999.90;;
40787;SDS011;26497;52.494;7.546;2023-07-29T03:50:49;1999.90;;;999.90;;
40787;SDS011;26497;52.494;7.546;2023-07-29T03:53:16;1999.90;;;999.90;;
40787;SDS011;26497;52.494;7.546;2023-07-29T03:55:43;594.70;;;338.55;;
40787;SDS011;26497;52.494;7.546;2023-07-29T03:58:11;594.38;;;338.10;;
40787;SDS011;26497;52.494;7.546;2023-07-29T04:00:38;596.20;;;340.13;;
40787;SDS011;26497;52.494;7.546;2023-07-29T04:03:05;122.47;;;114.65;;
40787;SDS011;26497;52.494;7.546;2023-07-29T04:05:32;593.25;;;337.10;;
40787;SDS011;26497;52.494;7.546;2023-07-29T04:07:59;593.95;;;338.13;;
40787;SDS011;26497;52.494;7.546;2023-07-29T04:10:26;126.40;;;117.75;;
40787;SDS011;26497;52.494;7.546;2023-07-29T04:12:56;127.95;;;119.13;;
40787;SDS011;26497;52.494;7.546;2023-07-29T04:15:25;125.90;;;117.47;;
40787;SDS011;26497;52.494;7.546;2023-07-29T04:17:52;124.43;;;115.93;;
40787;SDS011;26497;52.494;7.546;2023-07-29T04:20:19;120.10;;;112.05;;
40787;SDS011;26497;52.494;7.546;2023-07-29T04:22:45;122.50;;;114.38;;
40787;SDS011;26497;52.494;7.546;2023-07-29T04:25:13;126.65;;;118.18;;
40787;SDS011;26497;52.494;7.546;2023-07-29T04:27:42;120.50;;;112.70;;
40787;SDS011;26497;52.494;7.546;2023-07-29T04:30:09;123.82;;;115.13;;
40787;SDS011;26497;52.494;7.546;2023-07-29T04:32:38;593.17;;;336.48;;
40787;SDS011;26497;52.494;7.546;2023-07-29T04:35:07;594.55;;;338.25;;
40787;SDS011;26497;52.494;7.546;2023-07-29T04:37:34;123.07;;;114.93;;
40787;SDS011;26497;52.494;7.546;2023-07-29T04:40:01;591.63;;;335.27;;
40787;SDS011;26497;52.494;7.546;2023-07-29T04:42:28;591.90;;;335.40;;
40787;SDS011;26497;52.494;7.546;2023-07-29T04:44:56;589.65;;;333.42;;
40787;SDS011;26497;52.494;7.546;2023-07-29T04:47:23;120.75;;;111.97;;
40787;SDS011;26497;52.494;7.546;2023-07-29T04:49:51;114.70;;;107.53;;
40787;SDS011;26497;52.494;7.546;2023-07-29T04:52:18;113.60;;;106.43;;
40787;SDS011;26497;52.494;7.546;2023-07-29T04:54:45;115.50;;;107.70;;
40787;SDS011;26497;52.494;7.546;2023-07-29T04:57:12;116.40;;;108.57;;
40787;SDS011;26497;52.494;7.546;2023-07-29T04:59:39;116.20;;;108.63;;
40787;SDS011;26497;52.494;7.546;2023-07-29T05:02:06;108.10;;;100.93;;
40787;SDS011;26497;52.494;7.546;2023-07-29T05:04:33;102.40;;;95.50;;
40787;SDS011;26497;52.494;7.546;2023-07-29T05:07:01;102.63;;;95.70;;
40787;SDS011;26497;52.494;7.546;2023-07-29T05:09:28;103.35;;;96.50;;
40787;SDS011;26497;52.494;7.546;2023-07-29T05:11:55;98.25;;;91.80;;
40787;SDS011;26497;52.494;7.546;2023-07-29T05:14:22;94.20;;;87.78;;
40787;SDS011;26497;52.494;7.546;2023-07-29T05:16:49;92.20;;;85.72;;
40787;SDS011;26497;52.494;7.546;2023-07-29T05:19:16;89.32;;;83.07;;
40787;SDS011;26497;52.494;7.546;2023-07-29T05:21:43;91.03;;;85.07;;
40787;SDS011;26497;52.494;7.546;2023-07-29T05:24:11;83.88;;;78.28;;
40787;SDS011;26497;52.494;7.546;2023-07-29T05:26:38;81.53;;;76.32;;
40787;SDS011;26497;52.494;7.546;2023-07-29T05:29:05;80.78;;;75.10;;
40787;SDS011;26497;52.494;7.546;2023-07-29T05:31:32;85.28;;;79.60;;
40787;SDS011;26497;52.494;7.546;2023-07-29T05:33:59;86.75;;;80.88;;
40787;SDS011;26497;52.494;7.546;2023-07-29T05:36:26;94.22;;;88.22;;
40787;SDS011;26497;52.494;7.546;2023-07-29T05:38:54;113.95;;;106.43;;
40787;SDS011;26497;52.494;7.546;2023-07-29T05:41:22;146.02;;;136.70;;
40787;SDS011;26497;52.494;7.546;2023-07-29T05:43:51;160.52;;;150.88;;
40787;SDS011;26497;52.494;7.546;2023-07-29T05:46:18;144.70;;;135.65;;
40787;SDS011;26497;52.494;7.546;2023-07-29T05:48:45;125.72;;;118.07;;
40787;SDS011;26497;52.494;7.546;2023-07-29T05:51:12;116.50;;;109.65;;
40787;SDS011;26497;52.494;7.546;2023-07-29T05:53:39;105.25;;;98.45;;
40787;SDS011;26497;52.494;7.546;2023-07-29T05:56:05;101.97;;;95.88;;
40787;SDS011;26497;52.494;7.546;2023-07-29T05:58:34;108.35;;;101.72;;
40787;SDS011;26497;52.494;7.546;2023-07-29T06:01:01;113.53;;;106.63;;
40787;SDS011;26497;52.494;7.546;2023-07-29T06:03:28;113.45;;;106.60;;
40787;SDS011;26497;52.494;7.546;2023-07-29T06:05:55;109.38;;;102.82;;
40787;SDS011;26497;52.494;7.546;2023-07-29T06:08:22;105.38;;;98.88;;
40787;SDS011;26497;52.494;7.546;2023-07-29T06:10:49;102.53;;;96.32;;
40787;SDS011;26497;52.494;7.546;2023-07-29T06:13:16;95.80;;;89.90;;
40787;SDS011;26497;52.494;7.546;2023-07-29T06:15:44;91.80;;;86.22;;
40787;SDS011;26497;52.494;7.546;2023-07-29T06:18:11;93.10;;;87.32;;
40787;SDS011;26497;52.494;7.546;2023-07-29T06:20:38;91.07;;;85.63;;
40787;SDS011;26497;52.494;7.546;2023-07-29T06:23:05;95.47;;;89.85;;
40787;SDS011;26497;52.494;7.546;2023-07-29T06:25:32;99.30;;;92.72;;
40787;SDS011;26497;52.494;7.546;2023-07-29T06:27:59;101.28;;;95.25;;
40787;SDS011;26497;52.494;7.546;2023-07-29T06:30:26;94.00;;;88.57;;
40787;SDS011;26497;52.494;7.546;2023-07-29T06:32:54;93.80;;;87.88;;
40787;SDS011;26497;52.494;7.546;2023-07-29T06:35:21;92.78;;;86.40;;
40787;SDS011;26497;52.494;7.546;2023-07-29T06:37:48;91.95;;;86.60;;
40787;SDS011;26497;52.494;7.546;2023-07-29T06:40:15;91.43;;;85.60;;
40787;SDS011;26497;52.494;7.546;2023-07-29T06:42:42;89.38;;;84.07;;
40787;SDS011;26497;52.494;7.546;2023-07-29T06:45:09;88.97;;;83.45;;
40787;SDS011;26497;52.494;7.546;2023-07-29T06:47:37;90.90;;;85.57;;
40787;SDS011;26497;52.494;7.546;2023-07-29T06:50:06;86.00;;;80.82;;
40787;SDS011;26497;52.494;7.546;2023-07-29T06:52:34;76.88;;;72.20;;
40787;SDS011;26497;52.494;7.546;2023-07-29T06:55:02;80.07;;;75.22;;
40787;SDS011;26497;52.494;7.546;2023-07-29T06:57:29;76.82;;;72.35;;
40787;SDS011;26497;52.494;7.546;2023-07-29T06:59:56;76.95;;;71.95;;
40787;SDS011;26497;52.494;7.546;2023-07-29T07:02:23;75.00;;;70.25;;
40787;SDS011;26497;52.494;7.546;2023-07-29T07:04:50;74.68;;;69.95;;
40787;SDS011;26497;52.494;7.546;2023-07-29T07:07:18;69.55;;;65.25;;
40787;SDS011;26497;52.494;7.546;2023-07-29T07:09:45;65.63;;;61.13;;
40787;SDS011;26497;52.494;7.546;2023-07-29T07:12:12;64.20;;;60.53;;
40787;SDS011;26497;52.494;7.546;2023-07-29T07:14:39;62.53;;;58.55;;
40787;SDS011;26497;52.494;7.546;2023-07-29T07:17:06;59.95;;;56.35;;
40787;SDS011;26497;52.494;7.546;2023-07-29T07:19:33;57.70;;;54.30;;
40787;SDS011;26497;52.494;7.546;2023-07-29T07:22:01;56.72;;;53.33;;
40787;SDS011;26497;52.494;7.546;2023-07-29T07:24:30;49.47;;;46.67;;
40787;SDS011;26497;52.494;7.546;2023-07-29T07:26:57;46.92;;;44.33;;
40787;SDS011;26497;52.494;7.546;2023-07-29T07:29:24;58.17;;;54.88;;
40787;SDS011;26497;52.494;7.546;2023-07-29T07:31:51;70.13;;;65.85;;
40787;SDS011;26497;52.494;7.546;2023-07-29T07:34:20;73.40;;;69.45;;
40787;SDS011;26497;52.494;7.546;2023-07-29T07:36:47;76.47;;;71.97;;
40787;SDS011;26497;52.494;7.546;2023-07-29T07:39:14;77.72;;;73.50;;
40787;SDS011;26497;52.494;7.546;2023-07-29T07:41:43;88.13;;;83.45;;
40787;SDS011;26497;52.494;7.546;2023-07-29T07:44:12;70.22;;;66.53;;
40787;SDS011;26497;52.494;7.546;2023-07-29T07:46:42;85.00;;;80.25;;
40787;SDS011;26497;52.494;7.546;2023-07-29T07:49:11;92.50;;;87.55;;
40787;SDS011;26497;52.494;7.546;2023-07-29T07:51:39;72.82;;;68.82;;
40787;SDS011;26497;52.494;7.546;2023-07-29T07:54:06;78.57;;;74.40;;
40787;SDS011;26497;52.494;7.546;2023-07-29T07:56:33;96.30;;;91.07;;
40787;SDS011;26497;52.494;7.546;2023-07-29T07:59:02;81.50;;;77.13;;
40787;SDS011;26497;52.494;7.546;2023-07-29T08:04:00;74.53;;;70.18;;
40787;SDS011;26497;52.494;7.546;2023-07-29T08:06:27;81.55;;;77.10;;
40787;SDS011;26497;52.494;7.546;2023-07-29T08:08:54;69.75;;;66.00;;
40787;SDS011;26497;52.494;7.546;2023-07-29T08:11:22;58.28;;;54.72;;
40787;SDS011;26497;52.494;7.546;2023-07-29T08:13:49;94.63;;;89.38;;
40787;SDS011;26497;52.494;7.546;2023-07-29T08:16:17;1999.90;;;999.90;;
40787;SDS011;26497;52.494;7.546;2023-07-29T08:18:44;1999.90;;;999.90;;
40787;SDS011;26497;52.494;7.546;2023-07-29T08:21:12;1999.90;;;999.90;;
40787;SDS011;26497;52.494;7.546;2023-07-29T08:23:40;1999.90;;;999.90;;
40787;SDS011;26497;52.494;7.546;2023-07-29T08:26:08;1999.90;;;999.90;;
40787;SDS011;26497;52.494;7.546;2023-07-29T08:28:36;1999.90;;;999.90;;
40787;SDS011;26497;52.494;7.546;2023-07-29T08:31:05;1999.90;;;999.90;;
40787;SDS011;26497;52.494;7.546;2023-07-29T08:33:34;1999.90;;;999.90;;
40787;SDS011;26497;52.494;7.546;2023-07-29T08:36:03;1999.90;;;999.90;;
40787;SDS011;26497;52.494;7.546;2023-07-29T08:38:30;1999.90;;;999.90;;
40787;SDS011;26497;52.494;7.546;2023-07-29T08:40:58;1999.90;;;999.90;;
40787;SDS011;26497;52.494;7.546;2023-07-29T08:43:32;1999.90;;;999.90;;
40787;SDS011;26497;52.494;7.546;2023-07-29T08:46:01;1999.90;;;999.90;;
40787;SDS011;26497;52.494;7.546;2023-07-29T08:48:32;1999.90;;;999.90;;
40787;SDS011;26497;52.494;7.546;2023-07-29T08:51:10;1999.90;;;999.90;;
40787;SDS011;26497;52.494;7.546;2023-07-29T08:53:40;1999.90;;;999.90;;
40787;SDS011;26497;52.494;7.546;2023-07-29T08:56:07;1999.90;;;999.90;;
40787;SDS011;26497;52.494;7.546;2023-07-29T08:58:34;1999.90;;;999.90;;
40787;SDS011;26497;52.494;7.546;2023-07-29T09:01:01;1999.90;;;999.90;;
40787;SDS011;26497;52.494;7.546;2023-07-29T09:03:28;1999.90;;;999.90;;
40787;SDS011;26497;52.494;7.546;2023-07-29T09:05:56;1999.90;;;999.90;;
40787;SDS011;26497;52.494;7.546;2023-07-29T09:08:25;1999.90;;;999.90;;
40787;SDS011;26497;52.494;7.546;2023-07-29T09:10:53;1999.90;;;999.90;;
40787;SDS011;26497;52.494;7.546;2023-07-29T09:13:20;1999.90;;;999.90;;
40787;SDS011;26497;52.494;7.546;2023-07-29T09:15:48;1999.90;;;999.90;;
40787;SDS011;26497;52.494;7.546;2023-07-29T09:18:16;1999.90;;;999.90;;
40787;SDS011;26497;52.494;7.546;2023-07-29T09:23:14;1999.90;;;999.90;;
40787;SDS011;26497;52.494;7.546;2023-07-29T09:25:42;1999.90;;;999.90;;
40787;SDS011;26497;52.494;7.546;2023-07-29T09:28:09;1999.90;;;999.90;;
40787;SDS011;26497;52.494;7.546;2023-07-29T09:30:38;1999.90;;;999.90;;
40787;SDS011;26497;52.494;7.546;2023-07-29T09:33:06;1999.90;;;999.90;;
40787;SDS011;26497;52.494;7.546;2023-07-29T09:35:34;1999.90;;;999.90;;
40787;SDS011;26497;52.494;7.546;2023-07-29T09:38:02;1999.90;;;999.90;;
40787;SDS011;26497;52.494;7.546;2023-07-29T09:40:35;1999.90;;;999.90;;
40787;SDS011;26497;52.494;7.546;2023-07-29T09:43:03;1999.90;;;999.90;;
40787;SDS011;26497;52.494;7.546;2023-07-29T09:45:32;1999.90;;;999.90;;
40787;SDS011;26497;52.494;7.546;2023-07-29T09:48:01;1999.90;;;999.90;;
40787;SDS011;26497;52.494;7.546;2023-07-29T09:50:30;1999.90;;;999.90;;
40787;SDS011;26497;52.494;7.546;2023-07-29T09:52:57;1999.90;;;999.90;;
40787;SDS011;26497;52.494;7.546;2023-07-29T09:55:24;1999.90;;;999.90;;
40787;SDS011;26497;52.494;7.546;2023-07-29T09:57:54;1999.90;;;999.90;;
40787;SDS011;26497;52.494;7.546;2023-07-29T10:00:25;1999.90;;;999.90;;
40787;SDS011;26497;52.494;7.546;2023-07-29T10:02:53;1999.90;;;999.90;;
40787;SDS011;26497;52.494;7.546;2023-07-29T10:05:21;1999.90;;;999.90;;
40787;SDS011;26497;52.494;7.546;2023-07-29T10:07:49;1999.90;;;999.90;;
40787;SDS011;26497;52.494;7.546;2023-07-29T10:10:16;1999.90;;;999.90;;
40787;SDS011;26497;52.494;7.546;2023-07-29T10:12:44;1999.90;;;999.90;;
40787;SDS011;26497;52.494;7.546;2023-07-29T10:15:13;1999.90;;;999.90;;
40787;SDS011;26497;52.494;7.546;2023-07-29T10:17:40;1999.90;;;999.90;;
40787;SDS011;26497;52.494;7.546;2023-07-29T10:20:08;1999.90;;;999.90;;
40787;SDS011;26497;52.494;7.546;2023-07-29T10:22:37;1999.90;;;999.90;;
40787;SDS011;26497;52.494;7.546;2023-07-29T10:25:07;1999.90;;;999.90;;
40787;SDS011;26497;52.494;7.546;2023-07-29T10:27:42;1999.90;;;999.90;;
40787;SDS011;26497;52.494;7.546;2023-07-29T10:30:14;1999.90;;;999.90;;
40787;SDS011;26497;52.494;7.546;2023-07-29T10:32:42;1999.90;;;999.90;;
40787;SDS011;26497;52.494;7.546;2023-07-29T10:35:10;1999.90;;;999.90;;
40787;SDS011;26497;52.494;7.546;2023-07-29T10:37:38;1999.90;;;999.90;;
40787;SDS011;26497;52.494;7.546;2023-07-29T10:40:07;1999.90;;;999.90;;
40787;SDS011;26497;52.494;7.546;2023-07-29T10:42:36;1999.90;;;999.90;;
40787;SDS011;26497;52.494;7.546;2023-07-29T10:45:18;1999.90;;;999.90;;
40787;SDS011;26497;52.494;7.546;2023-07-29T10:47:46;1999.90;;;999.90;;
40787;SDS011;26497;52.494;7.546;2023-07-29T10:50:18;1999.90;;;999.90;;
40787;SDS011;26497;52.494;7.546;2023-07-29T10:52:49;1999.90;;;999.90;;
40787;SDS011;26497;52.494;7.546;2023-07-29T10:55:24;1999.90;;;999.90;;
40787;SDS011;26497;52.494;7.546;2023-07-29T10:58:04;1999.90;;;999.90;;
40787;SDS011;26497;52.494;7.546;2023-07-29T11:00:36;1999.90;;;999.90;;
40787;SDS011;26497;52.494;7.546;2023-07-29T11:03:05;1999.90;;;999.90;;
40787;SDS011;26497;52.494;7.546;2023-07-29T11:05:42;1999.90;;;999.90;;
40787;SDS011;26497;52.494;7.546;2023-07-29T11:08:18;1999.90;;;999.90;;
40787;SDS011;26497;52.494;7.546;2023-07-29T11:10:57;1999.90;;;999.90;;
40787;SDS011;26497;52.494;7.546;2023-07-29T11:13:30;1999.90;;;999.90;;
40787;SDS011;26497;52.494;7.546;2023-07-29T11:16:00;1999.90;;;999.90;;
40787;SDS011;26497;52.494;7.546;2023-07-29T11:18:28;1999.90;;;999.90;;
40787;SDS011;26497;52.494;7.546;2023-07-29T11:20:58;1999.90;;;999.90;;
40787;SDS011;26497;52.494;7.546;2023-07-29T11:23:27;1999.90;;;999.90;;
40787;SDS011;26497;52.494;7.546;2023-07-29T11:25:56;1999.90;;;999.90;;
40787;SDS011;26497;52.494;7.546;2023-07-29T11:28:24;1999.90;;;999.90;;
40787;SDS011;26497;52.494;7.546;2023-07-29T11:30:52;1999.90;;;999.90;;
40787;SDS011;26497;52.494;7.546;2023-07-29T11:33:22;1999.90;;;999.90;;
40787;SDS011;26497;52.494;7.546;2023-07-29T11:35:53;1999.90;;;999.90;;
40787;SDS011;26497;52.494;7.546;2023-07-29T11:38:21;1999.90;;;999.90;;
40787;SDS011;26497;52.494;7.546;2023-07-29T11:40:59;1999.90;;;999.90;;
40787;SDS011;26497;52.494;7.546;2023-07-29T11:43:28;1999.90;;;999.90;;
40787;SDS011;26497;52.494;7.546;2023-07-29T11:45:55;1999.90;;;999.90;;
40787;SDS011;26497;52.494;7.546;2023-07-29T11:48:31;1999.90;;;999.90;;
40787;SDS011;26497;52.494;7.546;2023-07-29T11:50:59;1999.90;;;999.90;;
40787;SDS011;26497;52.494;7.546;2023-07-29T11:53:27;1999.90;;;999.90;;
40787;SDS011;26497;52.494;7.546;2023-07-29T11:55:56;1999.90;;;999.90;;
40787;SDS011;26497;52.494;7.546;2023-07-29T11:58:23;1999.90;;;999.90;;
40787;SDS011;26497;52.494;7.546;2023-07-29T12:00:50;1999.90;;;999.90;;
40787;SDS011;26497;52.494;7.546;2023-07-29T12:03:18;1999.90;;;999.90;;
40787;SDS011;26497;52.494;7.546;2023-07-29T12:05:46;1999.90;;;999.90;;
40787;SDS011;26497;52.494;7.546;2023-07-29T12:08:14;1999.90;;;999.90;;
40787;SDS011;26497;52.494;7.546;2023-07-29T12:10:41;1999.90;;;999.90;;
40787;SDS011;26497;52.494;7.546;2023-07-29T12:13:09;1999.90;;;999.90;;
40787;SDS011;26497;52.494;7.546;2023-07-29T12:15:37;1999.90;;;999.90;;
40787;SDS011;26497;52.494;7.546;2023-07-29T12:18:05;1999.90;;;999.90;;
40787;SDS011;26497;52.494;7.546;2023-07-29T12:20:32;1999.90;;;999.90;;
40787;SDS011;26497;52.494;7.546;2023-07-29T12:23:02;1999.90;;;999.90;;
40787;SDS011;26497;52.494;7.546;2023-07-29T12:25:30;1999.90;;;999.90;;
40787;SDS011;26497;52.494;7.546;2023-07-29T12:28:01;1999.90;;;999.90;;
40787;SDS011;26497;52.494;7.546;2023-07-29T12:30:30;1999.90;;;999.90;;
40787;SDS011;26497;52.494;7.546;2023-07-29T12:32:57;1999.90;;;999.90;;
40787;SDS011;26497;52.494;7.546;2023-07-29T12:35:24;1999.90;;;999.90;;
40787;SDS011;26497;52.494;7.546;2023-07-29T12:38:02;1999.90;;;999.90;;
40787;SDS011;26497;52.494;7.546;2023-07-29T12:40:29;1999.90;;;999.90;;
40787;SDS011;26497;52.494;7.546;2023-07-29T12:42:56;1999.90;;;999.90;;
40787;SDS011;26497;52.494;7.546;2023-07-29T12:45:23;1999.90;;;999.90;;
40787;SDS011;26497;52.494;7.546;2023-07-29T12:47:52;1999.90;;;999.90;;
40787;SDS011;26497;52.494;7.546;2023-07-29T12:50:19;1999.90;;;999.90;;
40787;SDS011;26497;52.494;7.546;2023-07-29T12:52:47;1999.90;;;999.90;;
40787;SDS011;26497;52.494;7.546;2023-07-29T12:55:15;1999.90;;;999.90;;
40787;SDS011;26497;52.494;7.546;2023-07-29T12:57:42;1999.90;;;999.90;;
40787;SDS011;26497;52.494;7.546;2023-07-29T13:00:09;1999.90;;;999.90;;
40787;SDS011;26497;52.494;7.546;2023-07-29T13:02:38;1999.90;;;999.90;;
40787;SDS011;26497;52.494;7.546;2023-07-29T13:05:05;1999.90;;;999.90;;
40787;SDS011;26497;52.494;7.546;2023-07-29T13:07:37;1999.90;;;999.90;;
40787;SDS011;26497;52.494;7.546;2023-07-29T13:10:04;1999.90;;;999.90;;
40787;SDS011;26497;52.494;7.546;2023-07-29T13:12:34;1999.90;;;999.90;;
40787;SDS011;26497;52.494;7.546;2023-07-29T13:15:01;1999.90;;;999.90;;
40787;SDS011;26497;52.494;7.546;2023-07-29T13:17:28;1999.90;;;999.90;;
40787;SDS011;26497;52.494;7.546;2023-07-29T13:19:55;1999.90;;;999.90;;
40787;SDS011;26497;52.494;7.546;2023-07-29T13:22:22;1999.90;;;999.90;;
40787;SDS011;26497;52.494;7.546;2023-07-29T13:24:49;1999.90;;;999.90;;
40787;SDS011;26497;52.494;7.546;2023-07-29T13:27:16;1999.90;;;999.90;;
40787;SDS011;26497;52.494;7.546;2023-07-29T13:29:44;1999.90;;;999.90;;
40787;SDS011;26497;52.494;7.546;2023-07-29T13:32:11;1999.90;;;999.90;;
40787;SDS011;26497;52.494;7.546;2023-07-29T13:34:38;1999.90;;;999.90;;
40787;SDS011;26497;52.494;7.546;2023-07-29T13:37:06;1999.90;;;999.90;;
40787;SDS011;26497;52.494;7.546;2023-07-29T13:39:33;1999.90;;;999.90;;
40787;SDS011;26497;52.494;7.546;2023-07-29T13:42:00;1999.90;;;999.90;;
40787;SDS011;26497;52.494;7.546;2023-07-29T13:44:27;1999.90;;;999.90;;
40787;SDS011;26497;52.494;7.546;2023-07-29T13:46:55;1999.90;;;999.90;;
40787;SDS011;26497;52.494;7.546;2023-07-29T13:49:22;1999.90;;;999.90;;
40787;SDS011;26497;52.494;7.546;2023-07-29T13:51:49;1999.90;;;999.90;;
40787;SDS011;26497;52.494;7.546;2023-07-29T13:54:16;1999.90;;;999.90;;
40787;SDS011;26497;52.494;7.546;2023-07-29T13:56:43;1999.90;;;999.90;;
40787;SDS011;26497;52.494;7.546;2023-07-29T13:59:10;1999.90;;;999.90;;
40787;SDS011;26497;52.494;7.546;2023-07-29T14:01:37;1999.90;;;999.90;;
40787;SDS011;26497;52.494;7.546;2023-07-29T14:04:05;1999.90;;;999.90;;
40787;SDS011;26497;52.494;7.546;2023-07-29T14:06:32;1999.90;;;999.90;;
40787;SDS011;26497;52.494;7.546;2023-07-29T14:08:59;1999.90;;;999.90;;